Time;durP1;ratioP1;P1;durP2;ratioP2;P2;SDS_P1;SDS_P2;PMS_P1;PMS_P2;Temp;Humidity;BMP_temperature;BMP_pressure;BME280_temperature;BME280_humidity;BME280_pressure;Samples;Min_cycle;Max_cycle;Signal;HPM_P1;HPM_P2
2022/01/02 00:00:08;;;;;;;9.65;7.35;;;10.00;99.90;;;;;;5055153;28;20194;-71
2022/01/02 00:02:40;;;;;;;9.57;7.45;;;10.00;99.90;;;;;;5054706;28;20197;-68
2022/01/02 00:05:10;;;;;;;12.13;8.63;;;10.00;99.90;;;;;;5055027;28;20547;-70
2022/01/02 00:07:51;;;;;;;13.02;8.65;;;9.90;99.90;;;;;;5054877;28;20198;-71
2022/01/02 00:10:24;;;;;;;10.60;7.97;;;9.90;99.90;;;;;;5053811;28;20209;-67
2022/01/02 00:13:00;;;;;;;11.45;8.10;;;9.90;99.90;;;;;;5057895;28;20331;-70
2022/01/02 00:15:29;;;;;;;10.65;8.02;;;9.90;99.90;;;;;;5058428;28;20215;-68
2022/01/02 00:18:08;;;;;;;11.38;8.35;;;9.90;99.90;;;;;;5058131;28;20811;-70
2022/01/02 00:20:44;;;;;;;11.93;8.20;;;9.80;99.90;;;;;;5057966;28;20185;-68
2022/01/02 00:23:18;;;;;;;12.07;8.00;;;9.80;99.90;;;;;;5058315;28;20213;-71
2022/01/02 00:25:48;;;;;;;10.85;6.97;;;9.80;99.90;;;;;;5058007;28;20260;-68
2022/01/02 00:28:17;;;;;;;10.27;8.30;;;9.80;99.90;;;;;;5057420;28;20208;-70
2022/01/02 00:30:56;;;;;;;10.43;7.90;;;9.70;99.90;;;;;;5057878;28;20213;-70
2022/01/02 00:33:28;;;;;;;9.50;7.50;;;9.70;99.90;;;;;;5076171;28;20204;-68
2022/01/02 00:36:04;;;;;;;12.50;8.38;;;9.70;99.90;;;;;;5057797;28;20259;-72
2022/01/02 00:38:33;;;;;;;11.50;8.13;;;9.60;99.90;;;;;;5057535;28;20201;-68
2022/01/02 00:40:59;;;;;;;11.35;8.55;;;9.60;99.90;;;;;;5057811;28;20169;-68
2022/01/02 00:43:36;;;;;;;9.70;7.55;;;9.60;99.90;;;;;;5057650;28;20562;-68
2022/01/02 00:46:06;;;;;;;10.50;7.93;;;9.60;99.90;;;;;;5057521;28;20180;-70
2022/01/02 00:48:37;;;;;;;8.85;6.70;;;9.60;99.90;;;;;;5057585;28;20566;-68
2022/01/02 00:51:08;;;;;;;11.30;7.70;;;9.60;99.90;;;;;;5057623;28;20216;-68
2022/01/02 00:53:41;;;;;;;9.43;7.60;;;9.60;99.90;;;;;;5057539;28;20236;-70
2022/01/02 00:56:12;;;;;;;11.20;7.82;;;9.50;99.90;;;;;;5057380;28;20173;-70
2022/01/02 00:59:04;;;;;;;9.93;7.47;;;9.50;99.90;;;;;;5057182;28;20670;-70
2022/01/02 01:01:35;;;;;;;9.50;7.45;;;9.50;99.90;;;;;;5057183;28;20524;-68
2022/01/02 01:04:07;;;;;;;9.82;7.55;;;9.50;99.90;;;;;;5057207;28;20213;-68
2022/01/02 01:06:39;;;;;;;11.60;8.00;;;9.40;99.90;;;;;;5057264;28;20180;-68
2022/01/02 01:09:06;;;;;;;12.18;8.75;;;9.40;99.90;;;;;;5057105;28;20594;-70
2022/01/02 01:11:34;;;;;;;11.40;7.65;;;9.40;99.90;;;;;;5056962;28;20563;-68
2022/01/02 01:14:01;;;;;;;8.85;7.43;;;9.40;99.90;;;;;;5056879;28;20256;-68
2022/01/02 01:16:28;;;;;;;10.43;7.65;;;9.30;99.90;;;;;;5056880;28;20177;-70
2022/01/02 01:18:54;;;;;;;12.73;8.50;;;9.30;99.90;;;;;;5056802;28;20203;-68
2022/01/02 01:21:25;;;;;;;8.30;6.88;;;9.30;99.90;;;;;;5056655;28;20508;-69
2022/01/02 01:23:52;;;;;;;8.90;8.00;;;9.30;99.90;;;;;;5056905;28;20719;-70
2022/01/02 01:26:23;;;;;;;10.48;7.45;;;9.30;99.90;;;;;;5056767;28;20668;-67
2022/01/02 01:28:55;;;;;;;9.90;7.22;;;9.30;99.90;;;;;;5055971;28;20193;-70
2022/01/02 01:31:30;;;;;;;9.20;7.10;;;9.30;99.90;;;;;;5056583;28;20208;-71
2022/01/02 01:33:58;;;;;;;10.48;7.32;;;9.20;99.90;;;;;;5056522;28;20196;-70
2022/01/02 01:36:25;;;;;;;11.70;7.70;;;9.30;99.90;;;;;;5056841;28;20235;-69
2022/01/02 01:38:54;;;;;;;12.88;7.88;;;9.20;99.90;;;;;;5056749;28;20638;-68
2022/01/02 01:41:33;;;;;;;9.82;6.90;;;9.20;99.90;;;;;;5074680;28;20196;-68
2022/01/02 01:44:26;;;;;;;10.65;7.10;;;9.20;99.90;;;;;;5056394;28;20255;-71
2022/01/02 01:46:55;;;;;;;9.48;7.10;;;9.20;99.90;;;;;;5073694;28;20191;-68
2022/01/02 01:49:29;;;;;;;10.45;7.75;;;9.10;99.90;;;;;;5056302;28;20169;-68
2022/01/02 01:51:59;;;;;;;11.98;8.27;;;9.10;99.90;;;;;;5056199;28;20221;-71
2022/01/02 01:54:29;;;;;;;10.15;7.95;;;9.10;99.90;;;;;;5056425;28;20172;-68
2022/01/02 01:57:05;;;;;;;11.25;8.05;;;9.10;99.90;;;;;;5056432;28;20279;-68
2022/01/02 01:59:34;;;;;;;10.15;7.15;;;9.10;99.90;;;;;;5055939;28;20176;-75
2022/01/02 02:02:01;;;;;;;10.13;7.75;;;9.10;99.90;;;;;;5056028;28;20178;-68
2022/01/02 02:04:28;;;;;;;10.70;8.07;;;9.00;99.90;;;;;;5056003;28;20177;-71
2022/01/02 02:07:01;;;;;;;10.68;7.70;;;9.00;99.90;;;;;;5074049;28;20211;-73
2022/01/02 02:09:46;;;;;;;11.23;8.20;;;9.00;99.90;;;;;;5073858;28;20268;-71
2022/01/02 02:12:13;;;;;;;12.57;8.25;;;9.00;99.90;;;;;;5055972;28;20193;-70
2022/01/02 02:14:40;;;;;;;11.82;7.53;;;9.00;99.90;;;;;;5052464;28;20253;-68
2022/01/02 02:17:09;;;;;;;9.13;7.18;;;8.90;99.90;;;;;;5052449;28;20236;-68
2022/01/02 02:19:40;;;;;;;10.38;7.50;;;8.90;99.90;;;;;;5052288;28;20177;-70
2022/01/02 02:22:12;;;;;;;9.77;7.70;;;8.90;99.90;;;;;;5052531;28;20196;-68
2022/01/02 02:24:40;;;;;;;9.82;7.60;;;8.90;99.90;;;;;;5052506;28;20174;-70
2022/01/02 02:27:07;;;;;;;11.05;8.00;;;8.90;99.90;;;;;;5052478;28;20181;-68
2022/01/02 02:29:44;;;;;;;12.68;7.43;;;8.80;99.90;;;;;;5052818;28;20265;-70
2022/01/02 02:32:13;;;;;;;13.13;8.80;;;8.80;99.90;;;;;;5052361;28;20225;-68
2022/01/02 02:34:39;;;;;;;12.00;8.65;;;8.80;99.90;;;;;;5052139;28;20174;-70
2022/01/02 02:37:08;;;;;;;10.75;8.32;;;8.80;99.90;;;;;;5052210;28;20190;-71
2022/01/02 02:39:47;;;;;;;11.38;9.35;;;8.80;99.90;;;;;;5052269;28;20661;-70
2022/01/02 02:42:39;;;;;;;15.85;8.93;;;8.80;99.90;;;;;;5052352;28;20614;-70
2022/01/02 02:51:13;;;;;;;13.30;9.73;;;8.70;99.90;;;;;;5053728;28;20216;-70
2022/01/02 02:53:46;;;;;;;11.85;8.15;;;8.70;99.90;;;;;;5052481;28;20564;-68
2022/01/02 02:56:20;;;;;;;9.13;7.53;;;8.60;99.90;;;;;;5052265;28;20178;-70
2022/01/02 02:58:56;;;;;;;12.10;8.07;;;8.60;99.90;;;;;;5051965;28;20567;-70
2022/01/02 03:01:26;;;;;;;11.68;7.95;;;8.60;99.90;;;;;;5052154;28;20177;-68
2022/01/02 03:04:03;;;;;;;10.73;7.95;;;8.60;99.90;;;;;;5051887;28;20202;-70
2022/01/02 03:06:39;;;;;;;10.32;7.70;;;8.50;99.90;;;;;;5052122;28;20201;-68
2022/01/02 03:09:09;;;;;;;10.82;8.20;;;8.50;99.90;;;;;;5052183;28;20191;-68
2022/01/02 03:11:41;;;;;;;10.90;8.40;;;8.50;99.90;;;;;;5051972;28;20583;-68
2022/01/02 03:14:12;;;;;;;11.38;7.78;;;8.50;99.90;;;;;;5051802;28;20699;-70
2022/01/02 03:16:46;;;;;;;11.63;8.65;;;8.50;99.90;;;;;;5052297;28;20547;-68
2022/01/02 03:19:15;;;;;;;11.95;7.95;;;8.40;99.90;;;;;;5051946;28;20206;-70
2022/01/02 03:21:42;;;;;;;10.63;7.95;;;8.40;99.90;;;;;;5053107;28;20186;-70
2022/01/02 03:24:10;;;;;;;13.65;9.07;;;8.40;99.90;;;;;;5051845;28;20229;-70
2022/01/02 03:26:41;;;;;;;10.85;7.47;;;8.40;99.90;;;;;;5051977;28;20185;-68
2022/01/02 03:29:10;;;;;;;11.68;8.52;;;8.40;99.90;;;;;;5052042;28;20618;-68
2022/01/02 03:31:38;;;;;;;12.93;8.85;;;8.40;99.90;;;;;;5051576;28;20861;-70
2022/01/02 03:34:08;;;;;;;11.63;8.45;;;8.40;99.90;;;;;;5052233;28;20208;-68
2022/01/02 03:36:35;;;;;;;11.27;8.30;;;8.40;99.90;;;;;;5052343;28;20269;-70
2022/01/02 03:39:03;;;;;;;10.50;8.18;;;8.40;99.90;;;;;;5051680;28;20224;-67
2022/01/02 03:41:31;;;;;;;11.85;8.90;;;8.30;99.90;;;;;;5051722;28;20536;-71
2022/01/02 03:44:00;;;;;;;11.95;8.70;;;8.30;99.90;;;;;;5051946;28;20227;-67
2022/01/02 03:46:31;;;;;;;13.98;8.65;;;8.30;99.90;;;;;;5053608;28;20546;-70
2022/01/02 03:49:01;;;;;;;11.85;7.78;;;8.30;99.90;;;;;;5055223;28;20232;-68
2022/01/02 03:51:31;;;;;;;16.35;8.65;;;8.30;99.90;;;;;;5055015;28;20212;-70
2022/01/02 03:54:03;;;;;;;12.70;8.73;;;8.30;99.90;;;;;;5055470;28;20201;-68
2022/01/02 03:56:30;;;;;;;12.07;8.25;;;8.30;99.90;;;;;;5055051;28;20210;-68
2022/01/02 03:58:57;;;;;;;12.05;7.95;;;8.30;99.90;;;;;;5056457;28;20189;-68
2022/01/02 04:01:25;;;;;;;11.95;8.50;;;8.30;99.90;;;;;;5054966;28;20264;-70
2022/01/02 04:03:54;;;;;;;11.88;9.15;;;8.20;99.90;;;;;;5055074;28;20686;-71
2022/01/02 04:06:24;;;;;;;14.60;8.32;;;8.20;99.90;;;;;;5056184;28;20653;-70
2022/01/02 04:08:50;;;;;;;11.73;8.80;;;8.20;99.90;;;;;;5055249;28;20193;-68
2022/01/02 04:11:22;;;;;;;13.00;9.07;;;8.20;99.90;;;;;;5054775;28;20279;-68
2022/01/02 04:13:50;;;;;;;10.85;8.85;;;8.20;99.90;;;;;;5054737;28;20607;-70
2022/01/02 04:16:18;;;;;;;12.40;9.55;;;8.20;99.90;;;;;;5055024;28;20182;-68
2022/01/02 04:18:45;;;;;;;17.35;9.52;;;8.10;99.90;;;;;;5054948;28;20208;-70
2022/01/02 04:21:13;;;;;;;14.68;9.48;;;8.10;99.90;;;;;;5054820;28;20184;-67
2022/01/02 04:23:40;;;;;;;13.52;9.13;;;8.10;99.90;;;;;;5054508;28;20205;-68
2022/01/02 04:26:08;;;;;;;12.05;8.68;;;8.10;99.90;;;;;;5054879;28;20257;-68
2022/01/02 04:28:35;;;;;;;10.30;7.70;;;8.10;99.90;;;;;;5056306;28;20217;-70
2022/01/02 04:31:09;;;;;;;11.15;8.90;;;8.10;99.90;;;;;;5054569;28;20237;-73
2022/01/02 04:33:36;;;;;;;15.85;9.48;;;8.10;99.90;;;;;;5054392;28;20300;-70
2022/01/02 04:36:07;;;;;;;12.50;9.20;;;8.00;99.90;;;;;;5054481;28;20673;-71
2022/01/02 04:38:37;;;;;;;14.15;8.80;;;8.00;99.90;;;;;;5054586;28;20267;-73
2022/01/02 04:41:04;;;;;;;15.18;9.20;;;8.00;99.90;;;;;;5054592;28;20177;-71
2022/01/02 04:43:33;;;;;;;14.60;9.27;;;8.00;99.90;;;;;;5054130;28;20206;-68
2022/01/02 04:45:59;;;;;;;10.93;8.18;;;8.00;99.90;;;;;;5054233;28;20177;-68
2022/01/02 04:48:27;;;;;;;17.88;12.15;;;8.00;99.90;;;;;;5054209;28;20279;-70
2022/01/02 04:50:58;;;;;;;14.55;8.90;;;8.00;99.90;;;;;;5054729;28;20600;-70
2022/01/02 04:53:30;;;;;;;12.82;8.52;;;8.00;99.90;;;;;;5054006;28;20217;-70
2022/01/02 04:56:03;;;;;;;11.00;8.57;;;8.00;99.90;;;;;;5053911;28;20174;-70
2022/01/02 04:58:33;;;;;;;14.93;8.98;;;8.00;99.90;;;;;;5054106;28;20681;-71
2022/01/02 05:01:02;;;;;;;15.77;9.48;;;7.90;99.90;;;;;;5054040;28;20170;-68
2022/01/02 05:03:29;;;;;;;14.52;11.13;;;7.90;99.90;;;;;;5053855;28;20287;-68
2022/01/02 05:06:00;;;;;;;14.07;9.70;;;7.90;99.90;;;;;;5054559;28;20176;-68
2022/01/02 05:08:31;;;;;;;15.30;10.07;;;7.90;99.90;;;;;;5053980;28;20205;-68
2022/01/02 05:10:59;;;;;;;12.82;9.05;;;7.90;99.90;;;;;;5054020;28;20693;-68
2022/01/02 05:13:30;;;;;;;14.68;9.45;;;7.90;99.90;;;;;;5053345;28;20320;-70
2022/01/02 05:16:00;;;;;;;12.30;9.52;;;7.80;99.90;;;;;;5053621;28;20189;-68
2022/01/02 05:18:28;;;;;;;14.05;10.00;;;7.80;99.90;;;;;;5053716;28;20210;-68
2022/01/02 05:20:56;;;;;;;15.00;10.18;;;7.80;99.90;;;;;;5053456;28;20558;-70
2022/01/02 05:23:33;;;;;;;13.52;10.15;;;7.70;99.90;;;;;;5053523;28;20245;-70
2022/01/02 05:26:02;;;;;;;21.23;10.63;;;7.70;99.90;;;;;;5054809;28;20154;-70
2022/01/02 05:28:34;;;;;;;12.18;8.75;;;7.70;99.90;;;;;;5053520;28;20229;-68
2022/01/02 05:31:06;;;;;;;12.20;8.35;;;7.70;99.90;;;;;;5053583;28;20217;-70
2022/01/02 05:33:39;;;;;;;13.55;9.73;;;7.70;99.90;;;;;;5055189;28;20236;-71
2022/01/02 05:36:09;;;;;;;12.13;8.50;;;7.70;99.90;;;;;;5053311;28;20228;-70
2022/01/02 05:38:41;;;;;;;16.35;9.55;;;7.70;99.90;;;;;;5053452;28;20587;-71
2022/01/02 05:41:10;;;;;;;13.35;9.60;;;7.70;99.90;;;;;;5053261;28;20178;-70
2022/01/02 05:43:40;;;;;;;12.27;9.25;;;7.60;99.90;;;;;;5053046;28;20584;-73
2022/01/02 05:46:10;;;;;;;14.52;9.35;;;7.60;99.90;;;;;;5053226;28;20535;-72
2022/01/02 05:48:43;;;;;;;13.23;8.73;;;7.50;99.90;;;;;;5053068;28;20260;-73
2022/01/02 05:51:11;;;;;;;12.80;9.60;;;7.50;99.90;;;;;;5053319;28;20249;-71
2022/01/02 05:53:38;;;;;;;12.80;8.90;;;7.40;99.90;;;;;;5053158;28;20564;-73
2022/01/02 05:56:05;;;;;;;14.45;10.73;;;7.40;99.90;;;;;;5053299;28;20235;-73
2022/01/02 05:58:35;;;;;;;16.42;11.45;;;7.30;99.90;;;;;;5053085;28;20738;-73
2022/01/02 06:01:09;;;;;;;19.17;12.32;;;7.20;99.90;;;;;;5054500;28;20178;-71
2022/01/02 06:03:39;;;;;;;25.90;14.55;;;7.20;99.90;;;;;;5052812;28;20200;-70
2022/01/02 06:06:08;;;;;;;22.88;14.75;;;7.10;99.90;;;;;;5053348;28;20239;-68
2022/01/02 06:08:38;;;;;;;22.13;12.45;;;7.10;99.90;;;;;;5053755;28;20248;-68
2022/01/02 06:11:06;;;;;;;26.42;17.92;;;7.00;99.90;;;;;;5052794;28;20214;-70
2022/01/02 06:13:35;;;;;;;19.35;12.65;;;6.90;99.90;;;;;;5052486;28;20602;-69
2022/01/02 06:16:03;;;;;;;19.73;13.30;;;6.90;99.90;;;;;;5052612;28;20315;-70
2022/01/02 06:18:36;;;;;;;26.88;17.40;;;6.80;99.90;;;;;;5052807;28;20623;-70
2022/01/02 06:21:04;;;;;;;20.85;13.30;;;6.70;99.90;;;;;;5052651;28;20622;-68
2022/01/02 06:23:34;;;;;;;39.55;21.02;;;6.70;99.90;;;;;;5052756;28;20689;-68
2022/01/02 06:26:03;;;;;;;79.93;37.28;;;6.70;99.90;;;;;;5052106;28;20185;-69
2022/01/02 06:28:38;;;;;;;51.17;30.05;;;6.60;99.90;;;;;;5052590;28;20217;-70
2022/01/02 06:31:09;;;;;;;28.88;17.15;;;6.60;99.90;;;;;;5054327;28;20193;-70
2022/01/02 06:33:37;;;;;;;26.38;17.92;;;6.60;99.90;;;;;;5052567;28;20206;-68
2022/01/02 06:36:05;;;;;;;154.75;113.70;;;6.60;99.90;;;;;;5052172;28;20194;-70
2022/01/02 06:38:36;;;;;;;119.32;84.88;;;6.60;99.90;;;;;;5052469;28;20225;-68
2022/01/02 06:41:09;;;;;;;67.75;50.63;;;6.60;99.90;;;;;;5052369;28;20178;-68
2022/01/02 06:43:35;;;;;;;21.10;13.98;;;6.60;99.90;;;;;;5052203;28;20691;-70
2022/01/02 06:46:07;;;;;;;19.40;13.02;;;6.60;99.90;;;;;;5052219;28;20184;-69
2022/01/02 06:48:36;;;;;;;55.13;31.73;;;6.60;99.90;;;;;;5052411;28;20217;-68
2022/01/02 06:51:11;;;;;;;174.55;84.30;;;6.60;99.90;;;;;;5052099;28;20244;-68
2022/01/02 06:53:46;;;;;;;168.07;86.93;;;6.60;99.90;;;;;;5053687;28;20205;-70
2022/01/02 06:56:13;;;;;;;104.72;57.25;;;6.60;99.90;;;;;;5052113;28;20170;-68
2022/01/02 06:58:41;;;;;;;70.15;39.67;;;6.60;99.90;;;;;;5052055;28;20205;-69
2022/01/02 07:01:09;;;;;;;47.75;33.17;;;6.70;99.90;;;;;;5052394;28;20174;-68
2022/01/02 07:03:39;;;;;;;35.88;22.67;;;6.70;99.90;;;;;;5051919;28;20210;-70
2022/01/02 07:06:15;;;;;;;28.60;17.80;;;6.80;99.90;;;;;;5052228;28;20181;-70
2022/01/02 07:08:42;;;;;;;37.50;20.92;;;6.80;99.90;;;;;;5051935;28;20211;-70
2022/01/02 07:11:11;;;;;;;25.77;17.83;;;6.80;99.90;;;;;;5052285;28;20693;-69
2022/01/02 07:13:41;;;;;;;47.83;28.20;;;6.80;99.90;;;;;;5051904;28;20237;-70
2022/01/02 07:16:09;;;;;;;49.03;28.48;;;6.80;99.90;;;;;;5051998;28;20185;-71
2022/01/02 07:18:36;;;;;;;41.15;23.67;;;6.80;99.90;;;;;;5053075;28;20198;-68
2022/01/02 07:21:03;;;;;;;38.28;23.20;;;6.80;99.90;;;;;;5054883;28;20174;-70
2022/01/02 07:23:31;;;;;;;43.58;26.13;;;6.80;99.90;;;;;;5055959;28;20256;-68
2022/01/02 07:25:59;;;;;;;56.40;31.23;;;6.80;99.90;;;;;;5055692;28;20170;-70
2022/01/02 07:28:26;;;;;;;159.27;72.63;;;6.90;99.90;;;;;;5055838;28;20209;-70
2022/01/02 07:30:59;;;;;;;49.10;28.90;;;6.90;99.90;;;;;;5055956;28;20198;-68
2022/01/02 07:33:29;;;;;;;24.80;16.35;;;7.00;99.90;;;;;;5055976;28;20307;-70
2022/01/02 07:35:59;;;;;;;13.32;10.57;;;7.10;99.90;;;;;;5055575;28;20169;-68
2022/01/02 07:38:27;;;;;;;13.93;10.38;;;7.20;99.90;;;;;;5055690;28;20797;-71
2022/01/02 07:40:54;;;;;;;11.40;9.23;;;7.40;99.90;;;;;;5056102;28;20205;-68
2022/01/02 07:43:28;;;;;;;13.60;10.05;;;7.60;99.90;;;;;;5055449;28;20288;-70
2022/01/02 07:46:11;;;;;;;12.70;9.02;;;7.90;99.90;;;;;;5056067;28;20562;-73
2022/01/02 07:48:37;;;;;;;13.65;10.05;;;8.40;99.90;;;;;;5055595;28;20208;-71
2022/01/02 07:51:05;;;;;;;16.33;13.38;;;8.90;99.90;;;;;;5055336;28;20686;-68
2022/01/02 07:53:31;;;;;;;15.48;11.18;;;9.50;99.90;;;;;;5055404;28;20204;-71
2022/01/02 07:55:59;;;;;;;12.45;9.35;;;10.10;99.90;;;;;;5055349;28;20170;-68
2022/01/02 07:58:28;;;;;;;12.90;9.93;;;10.70;99.90;;;;;;5055516;28;20657;-70
2022/01/02 08:00:54;;;;;;;12.73;9.60;;;11.30;99.90;;;;;;5055261;28;20269;-67
2022/01/02 08:03:21;;;;;;;16.92;11.63;;;11.80;99.90;;;;;;5055425;28;20224;-70
2022/01/02 08:05:49;;;;;;;19.05;14.50;;;12.60;99.90;;;;;;5055394;28;20244;-70
2022/01/02 08:08:18;;;;;;;15.63;11.93;;;13.30;99.90;;;;;;5055286;28;20209;-71
2022/01/02 08:10:49;;;;;;;17.00;13.13;;;14.10;99.90;;;;;;5054820;28;20284;-71
2022/01/02 08:13:17;;;;;;;19.07;17.07;;;14.80;99.90;;;;;;5052061;28;20272;-71
2022/01/02 08:15:49;;;;;;;11.97;10.23;;;15.40;99.90;;;;;;5038232;28;20423;-70
2022/01/02 08:18:16;;;;;;;10.67;8.40;;;15.80;99.90;;;;;;5038017;28;20454;-68
2022/01/02 08:20:45;;;;;;;13.27;11.97;;;16.30;99.90;;;;;;5037916;28;20441;-70
2022/01/02 08:23:16;;;;;;;13.73;10.30;;;16.50;99.90;;;;;;5036522;28;20513;-71
2022/01/02 08:25:45;;;;;;;9.50;8.40;;;16.70;99.90;;;;;;5038115;28;20762;-71
2022/01/02 08:28:15;;;;;;;12.13;10.57;;;16.80;99.90;;;;;;5037837;28;20459;-69
2022/01/02 08:30:47;;;;;;;9.60;8.30;;;17.00;99.90;;;;;;5037810;28;20497;-71
2022/01/02 08:33:19;;;;;;;10.23;7.50;;;17.10;99.90;;;;;;5037434;28;20958;-71
2022/01/02 08:35:49;;;;;;;8.83;7.90;;;16.90;99.90;;;;;;5037605;28;20412;-69
2022/01/02 08:38:17;;;;;;;10.70;8.33;;;16.80;99.90;;;;;;5037904;28;20447;-68
2022/01/02 08:40:49;;;;;;;9.60;7.33;;;16.50;99.90;;;;;;5037573;28;20528;-71
2022/01/02 08:43:16;;;;;;;10.83;9.73;;;16.30;99.90;;;;;;5037862;28;20458;-71
2022/01/02 08:45:43;;;;;;;8.30;7.30;;;16.30;99.90;;;;;;5037461;28;20418;-68
2022/01/02 08:48:13;;;;;;;9.50;6.97;;;16.30;99.90;;;;;;5037494;28;20459;-69
2022/01/02 08:50:41;;;;;;;7.57;6.87;;;16.40;99.90;;;;;;5037858;28;20466;-69
2022/01/02 08:53:13;;;;;;;7.80;6.63;;;16.50;99.90;;;;;;5037590;28;20483;-69
2022/01/02 08:55:46;;;;;;;10.47;6.63;;;16.70;99.90;;;;;;5037791;28;20501;-71
2022/01/02 08:58:14;;;;;;;10.20;9.20;;;17.00;99.90;;;;;;5037160;28;20454;-69
2022/01/02 09:00:43;;;;;;;7.23;6.40;;;17.60;99.90;;;;;;5037260;28;20390;-70
2022/01/02 09:03:11;;;;;;;8.40;7.40;;;18.10;99.90;;;;;;5037170;28;20458;-69
2022/01/02 09:05:43;;;;;;;8.90;8.00;;;18.60;99.90;;;;;;5037002;28;20504;-70
2022/01/02 09:08:09;;;;;;;8.40;7.50;;;19.10;99.90;;;;;;5055639;28;20442;-69
2022/01/02 09:10:36;;;;;;;8.53;7.50;;;19.60;99.90;;;;;;5037012;28;20421;-71
2022/01/02 09:13:04;;;;;;;7.40;6.70;;;19.90;99.90;;;;;;5037826;28;20498;-69
2022/01/02 09:15:39;;;;;;;8.90;6.93;;;20.00;99.90;;;;;;5053900;28;20942;-69
2022/01/02 09:18:10;;;;;;;11.13;9.60;;;20.10;99.90;;;;;;5053467;28;20454;-69
2022/01/02 09:20:46;;;;;;;10.83;8.63;;;20.10;99.90;;;;;;5053562;28;20432;-71
2022/01/02 09:23:20;;;;;;;9.33;8.40;;;20.10;99.90;;;;;;5053571;28;20450;-71
2022/01/02 09:25:49;;;;;;;12.10;9.50;;;20.10;99.90;;;;;;5053836;28;20943;-69
2022/01/02 09:28:17;;;;;;;10.20;8.83;;;20.30;99.90;;;;;;5053286;28;20450;-69
2022/01/02 09:30:43;;;;;;;10.43;9.33;;;20.70;99.90;;;;;;5053423;28;20470;-68
2022/01/02 09:33:13;;;;;;;9.87;8.13;;;20.90;99.90;;;;;;5053281;28;20449;-69
2022/01/02 09:35:41;;;;;;;10.27;9.17;;;21.00;99.90;;;;;;5053326;28;20465;-71
2022/01/02 09:38:09;;;;;;;9.53;8.53;;;21.00;99.90;;;;;;5053490;28;20978;-68
2022/01/02 09:40:44;;;;;;;13.03;8.73;;;20.90;99.90;;;;;;5053170;28;20438;-71
2022/01/02 09:43:14;;;;;;;12.13;8.80;;;20.90;99.90;;;;;;5053405;28;20460;-69
2022/01/02 09:45:44;;;;;;;10.53;9.20;;;20.90;99.90;;;;;;5053371;28;20421;-69
2022/01/02 09:48:14;;;;;;;10.43;8.90;;;20.90;99.90;;;;;;5053035;28;20462;-71
2022/01/02 09:50:43;;;;;;;11.07;9.87;;;20.70;99.90;;;;;;5053258;28;20456;-71
2022/01/02 09:53:10;;;;;;;8.83;7.93;;;20.60;99.90;;;;;;5052944;28;20448;-71
2022/01/02 09:55:44;;;;;;;11.10;9.43;;;20.50;99.90;;;;;;5052769;28;20513;-72
2022/01/02 09:58:14;;;;;;;9.83;7.77;;;20.50;99.90;;;;;;5052892;28;20448;-73
2022/01/02 10:00:53;;;;;;;11.03;8.40;;;20.10;99.90;;;;;;5052662;28;20431;-73
2022/01/02 10:03:26;;;;;;;10.77;9.13;;;19.80;99.90;;;;;;5052930;28;20805;-73
2022/01/02 10:05:59;;;;;;;11.43;9.50;;;19.60;99.90;;;;;;5052603;28;20560;-71
2022/01/02 10:08:26;;;;;;;15.10;11.30;;;19.30;99.90;;;;;;5052926;28;20443;-71
2022/01/02 10:11:12;;;;;;;13.70;10.43;;;19.20;99.90;;;;;;5052486;28;20485;-69
2022/01/02 10:13:47;;;;;;;11.87;9.87;;;18.90;99.90;;;;;;5052326;28;20486;-69
2022/01/02 10:16:21;;;;;;;12.20;9.83;;;18.60;99.90;;;;;;5052666;28;20966;-71
2022/01/02 10:18:49;;;;;;;12.70;10.03;;;18.20;99.90;;;;;;5052427;28;20450;-70
2022/01/02 10:21:39;;;;;;;14.93;9.60;;;17.90;99.90;;;;;;5052780;28;20418;-70
2022/01/02 10:24:21;;;;;;;10.17;9.17;;;17.60;99.90;;;;;;5052507;28;20446;-71
2022/01/02 10:27:15;;;;;;;26.53;18.20;;;17.30;99.90;;;;;;5053713;28;20415;-70
2022/01/02 10:29:48;;;;;;;12.27;9.77;;;17.10;99.90;;;;;;5052988;28;20467;-72
2022/01/02 10:32:30;;;;;;;10.03;8.43;;;16.90;99.90;;;;;;5052541;28;20496;-69
2022/01/02 10:35:17;;;;;;;13.50;11.47;;;16.80;99.90;;;;;;5052361;28;20438;-69
2022/01/02 10:37:57;;;;;;;14.73;11.10;;;16.80;99.90;;;;;;5051991;28;20727;-71
2022/01/02 10:40:31;;;;;;;19.97;14.70;;;16.80;99.90;;;;;;5052597;28;20411;-69
2022/01/02 10:43:03;;;;;;;11.73;8.70;;;16.60;99.90;;;;;;5052440;28;20512;-69
2022/01/02 10:45:36;;;;;;;16.13;13.10;;;16.60;99.90;;;;;;5052440;28;20415;-70
2022/01/02 10:48:06;;;;;;;18.80;16.20;;;16.60;99.90;;;;;;5052228;28;20555;-72
2022/01/02 10:50:33;;;;;;;13.60;12.10;;;16.60;99.90;;;;;;5052370;28;20465;-71
2022/01/02 10:53:17;;;;;;;11.50;8.13;;;16.40;99.90;;;;;;5052500;28;20472;-70
2022/01/02 10:55:47;;;;;;;16.10;14.23;;;16.40;99.90;;;;;;5054834;28;20987;-69
2022/01/02 10:58:20;;;;;;;9.07;8.17;;;16.30;99.90;;;;;;5055039;28;20469;-72
2022/01/02 11:00:48;;;;;;;11.87;9.83;;;16.20;99.90;;;;;;5056067;28;20397;-72
2022/01/02 11:03:18;;;;;;;15.57;12.33;;;16.10;99.90;;;;;;5055054;28;20447;-72
2022/01/02 11:05:47;;;;;;;17.10;12.40;;;16.00;99.90;;;;;;5054820;28;20591;-70
2022/01/02 11:08:15;;;;;;;11.60;10.23;;;15.90;99.90;;;;;;5053515;28;20508;-69
2022/01/02 11:10:44;;;;;;;16.03;12.40;;;15.70;99.90;;;;;;5054311;28;20551;-72
2022/01/02 11:13:17;;;;;;;11.63;9.43;;;15.60;99.90;;;;;;5059671;28;20466;-69
2022/01/02 11:15:44;;;;;;;16.13;12.50;;;15.50;99.90;;;;;;5074881;28;20450;-72
2022/01/02 11:18:12;;;;;;;11.63;9.57;;;15.50;99.90;;;;;;5074558;28;20473;-72
2022/01/02 11:20:40;;;;;;;11.50;9.83;;;15.50;99.90;;;;;;5075816;28;20428;-72
2022/01/02 11:23:25;;;;;;;10.00;8.67;;;15.40;99.90;;;;;;5075947;28;20453;-72
2022/01/02 11:26:13;;;;;;;12.00;8.83;;;15.30;99.90;;;;;;5076214;28;20425;-72
2022/01/02 11:28:50;;;;;;;14.63;9.60;;;15.30;99.90;;;;;;5075704;28;20462;-69
2022/01/02 11:31:39;;;;;;;10.70;9.53;;;15.30;99.90;;;;;;5075565;28;20460;-71
2022/01/02 11:34:36;;;;;;;12.60;9.40;;;15.20;99.90;;;;;;5075650;28;20433;-70
2022/01/02 11:37:34;;;;;;;22.23;13.47;;;15.10;99.90;;;;;;5075601;28;20433;-69
2022/01/02 11:40:17;;;;;;;11.20;9.43;;;15.10;99.90;;;;;;5075202;28;20417;-69
2022/01/02 11:42:48;;;;;;;10.80;8.60;;;15.20;99.90;;;;;;5075339;28;20544;-70
2022/01/02 11:45:23;;;;;;;14.80;10.50;;;15.30;99.90;;;;;;5075348;28;20422;-72
2022/01/02 11:47:53;;;;;;;11.60;9.47;;;15.40;99.90;;;;;;5075207;28;20449;-70
2022/01/02 11:50:30;;;;;;;12.87;8.57;;;15.50;99.90;;;;;;5075150;28;20464;-73
2022/01/02 11:53:17;;;;;;;10.10;8.43;;;15.50;99.90;;;;;;5075125;28;20996;-69
2022/01/02 11:55:45;;;;;;;9.77;7.20;;;15.60;99.90;;;;;;5075594;28;20425;-70
2022/01/02 11:58:15;;;;;;;11.50;8.90;;;15.60;99.90;;;;;;5075371;28;20454;-72
2022/01/02 12:00:49;;;;;;;9.67;8.67;;;15.60;99.90;;;;;;5074963;28;20781;-69
2022/01/02 12:03:44;;;;;;;14.40;9.43;;;15.60;99.90;;;;;;5074988;28;20468;-74
2022/01/02 12:06:24;;;;;;;11.83;9.43;;;15.70;99.90;;;;;;5073798;28;20421;-70
2022/01/02 12:08:57;;;;;;;11.67;8.40;;;15.70;99.90;;;;;;5074946;28;20595;-72
2022/01/02 12:11:32;;;;;;;10.70;8.30;;;15.80;99.90;;;;;;5074963;28;20519;-72
2022/01/02 12:14:11;;;;;;;12.40;9.60;;;15.80;99.90;;;;;;5074618;28;20859;-69
2022/01/02 12:16:57;;;;;;;10.10;7.40;;;15.80;99.90;;;;;;5074703;28;20442;-72
2022/01/02 12:19:24;;;;;;;8.97;7.10;;;15.70;99.90;;;;;;5074976;28;20461;-72
2022/01/02 12:22:12;;;;;;;11.73;9.47;;;15.70;99.90;;;;;;5075014;28;20437;-71
2022/01/02 12:24:40;;;;;;;10.30;8.07;;;15.70;99.90;;;;;;5074607;28;20418;-72
2022/01/02 12:27:18;;;;;;;9.80;7.27;;;15.80;99.90;;;;;;5074773;28;20442;-69
2022/01/02 12:29:46;;;;;;;10.23;8.60;;;15.80;99.90;;;;;;5074495;28;20433;-72
2022/01/02 12:32:21;;;;;;;9.80;6.90;;;15.90;99.90;;;;;;5074455;28;20838;-72
2022/01/02 12:34:57;;;;;;;11.47;8.90;;;15.90;99.90;;;;;;5074996;28;20400;-70
2022/01/02 12:37:35;;;;;;;11.93;8.70;;;15.90;99.90;;;;;;5075201;28;20450;-69
2022/01/02 12:40:16;;;;;;;8.30;7.20;;;15.90;99.90;;;;;;5075607;28;20455;-70
2022/01/02 12:42:44;;;;;;;12.40;8.33;;;15.90;99.90;;;;;;5074125;28;20449;-72
2022/01/02 12:45:20;;;;;;;8.37;6.27;;;15.90;99.90;;;;;;5074388;28;20993;-69
2022/01/02 12:47:52;;;;;;;8.40;7.50;;;15.90;99.90;;;;;;5075382;28;20441;-70
2022/01/02 12:50:30;;;;;;;10.57;8.57;;;15.80;99.90;;;;;;5073928;28;20414;-72
2022/01/02 12:52:58;;;;;;;8.90;8.00;;;15.70;99.90;;;;;;5073874;28;20467;-70
2022/01/02 12:55:26;;;;;;;11.97;9.30;;;15.70;99.90;;;;;;5074130;28;20437;-69
2022/01/02 12:58:09;;;;;;;10.63;8.90;;;15.70;99.90;;;;;;5074120;28;20453;-72
2022/01/02 13:00:39;;;;;;;8.47;6.90;;;15.70;99.90;;;;;;5074110;28;20797;-69
2022/01/02 13:03:15;;;;;;;12.20;8.10;;;15.80;99.90;;;;;;5073715;28;20446;-70
2022/01/02 13:06:04;;;;;;;9.73;7.43;;;15.80;99.90;;;;;;5074183;28;20765;-69
2022/01/02 13:08:32;;;;;;;10.90;7.57;;;15.80;99.90;;;;;;5074060;28;20496;-72